sensor_id;sensor_type;location;lat;lon;timestamp;temperature;humidity
62363;DHT22;48396;48.426;1.500;2023-04-25T00:01:22;14.60;93.20
62363;DHT22;48396;48.426;1.500;2023-04-25T00:03:48;14.70;93.10
62363;DHT22;48396;48.426;1.500;2023-04-25T00:06:14;14.60;92.90
62363;DHT22;48396;48.426;1.500;2023-04-25T00:08:40;14.40;93.00
62363;DHT22;48396;48.426;1.500;2023-04-25T00:11:05;14.30;93.00
62363;DHT22;48396;48.426;1.500;2023-04-25T00:13:31;14.30;93.00
62363;DHT22;48396;48.426;1.500;2023-04-25T00:15:57;14.20;92.80
62363;DHT22;48396;48.426;1.500;2023-04-25T00:18:23;14.20;92.80
62363;DHT22;48396;48.426;1.500;2023-04-25T00:20:49;14.10;92.70
62363;DHT22;48396;48.426;1.500;2023-04-25T00:23:18;14.10;92.70
62363;DHT22;48396;48.426;1.500;2023-04-25T00:25:44;14.20;92.70
62363;DHT22;48396;48.426;1.500;2023-04-25T00:28:11;14.30;92.20
62363;DHT22;48396;48.426;1.500;2023-04-25T00:30:36;14.30;92.10
62363;DHT22;48396;48.426;1.500;2023-04-25T00:33:02;14.10;92.00
62363;DHT22;48396;48.426;1.500;2023-04-25T00:35:28;14.20;92.00
62363;DHT22;48396;48.426;1.500;2023-04-25T00:37:54;14.10;91.90
62363;DHT22;48396;48.426;1.500;2023-04-25T00:40:20;14.00;91.70
62363;DHT22;48396;48.426;1.500;2023-04-25T00:42:46;13.90;91.80
62363;DHT22;48396;48.426;1.500;2023-04-25T00:45:13;13.80;91.80
62363;DHT22;48396;48.426;1.500;2023-04-25T00:47:42;13.80;91.80
62363;DHT22;48396;48.426;1.500;2023-04-25T00:50:08;13.70;91.70
62363;DHT22;48396;48.426;1.500;2023-04-25T00:52:35;13.80;91.70
62363;DHT22;48396;48.426;1.500;2023-04-25T00:55:01;13.90;91.70
62363;DHT22;48396;48.426;1.500;2023-04-25T00:57:26;13.90;91.50
62363;DHT22;48396;48.426;1.500;2023-04-25T00:59:53;13.80;91.30
62363;DHT22;48396;48.426;1.500;2023-04-25T01:02:19;13.80;91.20
62363;DHT22;48396;48.426;1.500;2023-04-25T01:04:46;13.80;91.30
62363;DHT22;48396;48.426;1.500;2023-04-25T01:07:12;13.80;91.20
62363;DHT22;48396;48.426;1.500;2023-04-25T01:09:38;13.70;91.10
62363;DHT22;48396;48.426;1.500;2023-04-25T01:12:04;13.70;91.30
62363;DHT22;48396;48.426;1.500;2023-04-25T01:14:30;13.70;91.40
62363;DHT22;48396;48.426;1.500;2023-04-25T01:16:56;13.60;91.20
62363;DHT22;48396;48.426;1.500;2023-04-25T01:19:21;13.50;91.30
62363;DHT22;48396;48.426;1.500;2023-04-25T01:21:47;13.60;91.40
62363;DHT22;48396;48.426;1.500;2023-04-25T01:24:13;13.60;91.30
62363;DHT22;48396;48.426;1.500;2023-04-25T01:26:40;13.60;91.30
62363;DHT22;48396;48.426;1.500;2023-04-25T01:29:09;13.70;91.30
62363;DHT22;48396;48.426;1.500;2023-04-25T01:31:36;13.70;91.10
62363;DHT22;48396;48.426;1.500;2023-04-25T01:34:02;13.80;91.10
62363;DHT22;48396;48.426;1.500;2023-04-25T01:36:28;13.80;90.90
62363;DHT22;48396;48.426;1.500;2023-04-25T01:38:53;13.80;90.90
62363;DHT22;48396;48.426;1.500;2023-04-25T01:41:20;13.80;91.00
62363;DHT22;48396;48.426;1.500;2023-04-25T01:43:48;13.80;91.00
62363;DHT22;48396;48.426;1.500;2023-04-25T01:46:14;13.90;91.00
62363;DHT22;48396;48.426;1.500;2023-04-25T01:48:40;13.90;90.90
62363;DHT22;48396;48.426;1.500;2023-04-25T01:51:05;13.80;90.90
62363;DHT22;48396;48.426;1.500;2023-04-25T01:53:31;13.90;90.80
62363;DHT22;48396;48.426;1.500;2023-04-25T01:55:57;14.00;90.70
62363;DHT22;48396;48.426;1.500;2023-04-25T01:58:22;14.00;90.50
62363;DHT22;48396;48.426;1.500;2023-04-25T02:00:48;14.00;90.60
62363;DHT22;48396;48.426;1.500;2023-04-25T02:03:13;14.00;90.50
62363;DHT22;48396;48.426;1.500;2023-04-25T02:05:39;13.80;90.60
62363;DHT22;48396;48.426;1.500;2023-04-25T02:08:07;13.90;90.70
62363;DHT22;48396;48.426;1.500;2023-04-25T02:10:33;13.90;90.60
62363;DHT22;48396;48.426;1.500;2023-04-25T02:12:59;13.90;90.60
62363;DHT22;48396;48.426;1.500;2023-04-25T02:15:25;13.90;90.60
62363;DHT22;48396;48.426;1.500;2023-04-25T02:17:51;13.90;90.40
62363;DHT22;48396;48.426;1.500;2023-04-25T02:20:19;13.80;90.40
62363;DHT22;48396;48.426;1.500;2023-04-25T02:22:45;13.80;90.60
62363;DHT22;48396;48.426;1.500;2023-04-25T02:25:11;13.70;90.60
62363;DHT22;48396;48.426;1.500;2023-04-25T02:27:37;13.60;90.70
62363;DHT22;48396;48.426;1.500;2023-04-25T02:30:04;13.70;90.70
62363;DHT22;48396;48.426;1.500;2023-04-25T02:32:30;13.70;90.60
62363;DHT22;48396;48.426;1.500;2023-04-25T02:34:55;13.70;90.50
62363;DHT22;48396;48.426;1.500;2023-04-25T02:37:23;13.80;90.40
62363;DHT22;48396;48.426;1.500;2023-04-25T02:39:49;13.70;90.40
62363;DHT22;48396;48.426;1.500;2023-04-25T02:42:15;13.80;90.50
62363;DHT22;48396;48.426;1.500;2023-04-25T02:44:40;13.60;90.50
62363;DHT22;48396;48.426;1.500;2023-04-25T02:47:06;13.60;90.60
62363;DHT22;48396;48.426;1.500;2023-04-25T02:49:32;13.50;90.70
62363;DHT22;48396;48.426;1.500;2023-04-25T02:51:57;13.50;90.80
62363;DHT22;48396;48.426;1.500;2023-04-25T02:54:23;13.40;90.90
62363;DHT22;48396;48.426;1.500;2023-04-25T02:56:48;13.50;90.90
62363;DHT22;48396;48.426;1.500;2023-04-25T02:59:14;13.60;90.80
62363;DHT22;48396;48.426;1.500;2023-04-25T03:01:39;13.60;90.70
62363;DHT22;48396;48.426;1.500;2023-04-25T03:04:05;13.70;90.80
62363;DHT22;48396;48.426;1.500;2023-04-25T03:06:30;13.60;90.70
62363;DHT22;48396;48.426;1.500;2023-04-25T03:08:56;13.60;90.70
62363;DHT22;48396;48.426;1.500;2023-04-25T03:11:21;13.50;90.80
62363;DHT22;48396;48.426;1.500;2023-04-25T03:13:47;13.50;90.80
62363;DHT22;48396;48.426;1.500;2023-04-25T03:16:13;13.40;90.90
62363;DHT22;48396;48.426;1.500;2023-04-25T03:18:38;13.50;91.20
62363;DHT22;48396;48.426;1.500;2023-04-25T03:21:04;13.60;90.80
62363;DHT22;48396;48.426;1.500;2023-04-25T03:23:29;13.60;90.60
62363;DHT22;48396;48.426;1.500;2023-04-25T03:25:55;13.60;90.40
62363;DHT22;48396;48.426;1.500;2023-04-25T03:28:21;13.60;90.60
62363;DHT22;48396;48.426;1.500;2023-04-25T03:30:47;13.60;90.60
62363;DHT22;48396;48.426;1.500;2023-04-25T03:33:13;13.40;90.80
62363;DHT22;48396;48.426;1.500;2023-04-25T03:35:38;13.40;91.00
62363;DHT22;48396;48.426;1.500;2023-04-25T03:38:04;13.30;91.00
62363;DHT22;48396;48.426;1.500;2023-04-25T03:40:30;13.20;91.10
62363;DHT22;48396;48.426;1.500;2023-04-25T03:42:55;13.20;91.10
62363;DHT22;48396;48.426;1.500;2023-04-25T03:45:21;13.30;91.00
62363;DHT22;48396;48.426;1.500;2023-04-25T03:47:46;13.20;91.10
62363;DHT22;48396;48.426;1.500;2023-04-25T03:50:12;13.00;91.30
62363;DHT22;48396;48.426;1.500;2023-04-25T03:52:38;12.90;91.50
62363;DHT22;48396;48.426;1.500;2023-04-25T03:55:04;12.90;91.60
62363;DHT22;48396;48.426;1.500;2023-04-25T03:57:30;12.90;91.60
62363;DHT22;48396;48.426;1.500;2023-04-25T03:59:55;12.90;91.60
62363;DHT22;48396;48.426;1.500;2023-04-25T04:02:21;12.90;91.60
62363;DHT22;48396;48.426;1.500;2023-04-25T04:04:47;13.00;91.60
62363;DHT22;48396;48.426;1.500;2023-04-25T04:07:13;12.90;91.50
62363;DHT22;48396;48.426;1.500;2023-04-25T04:09:38;12.90;91.60
62363;DHT22;48396;48.426;1.500;2023-04-25T04:12:04;12.80;91.60
62363;DHT22;48396;48.426;1.500;2023-04-25T04:14:30;12.80;91.50
62363;DHT22;48396;48.426;1.500;2023-04-25T04:16:55;12.80;91.50
62363;DHT22;48396;48.426;1.500;2023-04-25T04:19:21;12.90;91.50
62363;DHT22;48396;48.426;1.500;2023-04-25T04:21:47;13.00;91.30
62363;DHT22;48396;48.426;1.500;2023-04-25T04:24:12;13.00;91.30
62363;DHT22;48396;48.426;1.500;2023-04-25T04:26:38;13.10;91.20
62363;DHT22;48396;48.426;1.500;2023-04-25T04:29:04;13.20;91.10
62363;DHT22;48396;48.426;1.500;2023-04-25T04:31:30;13.10;91.20
62363;DHT22;48396;48.426;1.500;2023-04-25T04:33:56;13.00;91.10
62363;DHT22;48396;48.426;1.500;2023-04-25T04:36:21;13.00;91.20
62363;DHT22;48396;48.426;1.500;2023-04-25T04:38:48;13.00;91.10
62363;DHT22;48396;48.426;1.500;2023-04-25T04:41:14;12.90;91.10
62363;DHT22;48396;48.426;1.500;2023-04-25T04:43:39;12.90;91.10
62363;DHT22;48396;48.426;1.500;2023-04-25T04:46:05;13.00;91.10
62363;DHT22;48396;48.426;1.500;2023-04-25T04:48:32;13.10;91.10
62363;DHT22;48396;48.426;1.500;2023-04-25T04:51:00;12.90;91.20
62363;DHT22;48396;48.426;1.500;2023-04-25T04:53:26;12.90;91.30
62363;DHT22;48396;48.426;1.500;2023-04-25T04:55:52;12.80;91.30
62363;DHT22;48396;48.426;1.500;2023-04-25T04:58:18;12.70;91.40
62363;DHT22;48396;48.426;1.500;2023-04-25T05:00:44;12.90;91.40
62363;DHT22;48396;48.426;1.500;2023-04-25T05:03:10;12.90;91.40
62363;DHT22;48396;48.426;1.500;2023-04-25T05:05:36;12.90;91.40
62363;DHT22;48396;48.426;1.500;2023-04-25T05:08:05;12.90;91.50
62363;DHT22;48396;48.426;1.500;2023-04-25T05:10:31;12.90;91.50
62363;DHT22;48396;48.426;1.500;2023-04-25T05:12:56;12.90;91.60
62363;DHT22;48396;48.426;1.500;2023-04-25T05:15:22;12.90;91.60
62363;DHT22;48396;48.426;1.500;2023-04-25T05:17:48;12.90;91.60
62363;DHT22;48396;48.426;1.500;2023-04-25T05:20:13;12.90;91.50
62363;DHT22;48396;48.426;1.500;2023-04-25T05:22:39;13.00;91.50
62363;DHT22;48396;48.426;1.500;2023-04-25T05:25:07;13.00;91.50
62363;DHT22;48396;48.426;1.500;2023-04-25T05:27:33;13.00;91.50
62363;DHT22;48396;48.426;1.500;2023-04-25T05:29:59;13.00;91.60
62363;DHT22;48396;48.426;1.500;2023-04-25T05:32:24;12.90;91.60
62363;DHT22;48396;48.426;1.500;2023-04-25T05:34:50;12.90;91.70
62363;DHT22;48396;48.426;1.500;2023-04-25T05:37:17;12.90;91.70
62363;DHT22;48396;48.426;1.500;2023-04-25T05:39:42;13.10;91.70
62363;DHT22;48396;48.426;1.500;2023-04-25T05:42:08;13.00;91.70
62363;DHT22;48396;48.426;1.500;2023-04-25T05:44:33;13.10;91.70
62363;DHT22;48396;48.426;1.500;2023-04-25T05:46:59;13.10;91.80
62363;DHT22;48396;48.426;1.500;2023-04-25T05:49:25;13.10;91.80
62363;DHT22;48396;48.426;1.500;2023-04-25T05:51:50;13.10;92.00
62363;DHT22;48396;48.426;1.500;2023-04-25T05:54:16;13.20;92.00
62363;DHT22;48396;48.426;1.500;2023-04-25T05:56:41;13.10;92.00
62363;DHT22;48396;48.426;1.500;2023-04-25T05:59:07;13.10;92.20
62363;DHT22;48396;48.426;1.500;2023-04-25T06:01:32;13.20;92.20
62363;DHT22;48396;48.426;1.500;2023-04-25T06:03:58;13.20;92.20
62363;DHT22;48396;48.426;1.500;2023-04-25T06:06:23;13.20;92.20
62363;DHT22;48396;48.426;1.500;2023-04-25T06:08:49;13.30;92.30
62363;DHT22;48396;48.426;1.500;2023-04-25T06:11:15;13.20;92.30
62363;DHT22;48396;48.426;1.500;2023-04-25T06:13:41;13.30;92.40
62363;DHT22;48396;48.426;1.500;2023-04-25T06:16:06;13.40;92.40
62363;DHT22;48396;48.426;1.500;2023-04-25T06:18:32;13.50;92.40
62363;DHT22;48396;48.426;1.500;2023-04-25T06:20:58;13.60;92.30
62363;DHT22;48396;48.426;1.500;2023-04-25T06:23:24;13.60;92.30
62363;DHT22;48396;48.426;1.500;2023-04-25T06:25:49;13.70;92.30
62363;DHT22;48396;48.426;1.500;2023-04-25T06:28:15;13.70;92.30
62363;DHT22;48396;48.426;1.500;2023-04-25T06:30:40;13.70;92.30
62363;DHT22;48396;48.426;1.500;2023-04-25T06:33:06;13.70;92.40
62363;DHT22;48396;48.426;1.500;2023-04-25T06:35:34;13.70;92.40
62363;DHT22;48396;48.426;1.500;2023-04-25T06:37:59;13.70;92.50
62363;DHT22;48396;48.426;1.500;2023-04-25T06:40:25;13.60;92.60
62363;DHT22;48396;48.426;1.500;2023-04-25T06:42:51;13.60;92.60
62363;DHT22;48396;48.426;1.500;2023-04-25T06:45:16;13.60;92.70
62363;DHT22;48396;48.426;1.500;2023-04-25T06:47:42;13.70;92.70
62363;DHT22;48396;48.426;1.500;2023-04-25T06:50:08;13.70;92.60
62363;DHT22;48396;48.426;1.500;2023-04-25T06:52:34;13.70;92.50
62363;DHT22;48396;48.426;1.500;2023-04-25T06:54:59;13.70;92.50
62363;DHT22;48396;48.426;1.500;2023-04-25T06:57:25;13.70;92.50
62363;DHT22;48396;48.426;1.500;2023-04-25T06:59:51;13.80;92.50
62363;DHT22;48396;48.426;1.500;2023-04-25T07:02:16;13.90;92.40
62363;DHT22;48396;48.426;1.500;2023-04-25T07:04:42;13.80;92.30
62363;DHT22;48396;48.426;1.500;2023-04-25T07:07:07;13.90;92.20
62363;DHT22;48396;48.426;1.500;2023-04-25T07:09:33;13.90;92.40
62363;DHT22;48396;48.426;1.500;2023-04-25T07:11:59;13.90;92.30
62363;DHT22;48396;48.426;1.500;2023-04-25T07:14:27;14.00;92.40
62363;DHT22;48396;48.426;1.500;2023-04-25T07:16:52;14.00;92.40
62363;DHT22;48396;48.426;1.500;2023-04-25T07:19:18;14.00;92.30
62363;DHT22;48396;48.426;1.500;2023-04-25T07:21:43;14.10;92.20
62363;DHT22;48396;48.426;1.500;2023-04-25T07:24:09;14.00;92.10
62363;DHT22;48396;48.426;1.500;2023-04-25T07:26:34;13.90;92.00
62363;DHT22;48396;48.426;1.500;2023-04-25T07:29:00;14.00;92.20
62363;DHT22;48396;48.426;1.500;2023-04-25T07:31:25;14.00;92.10
62363;DHT22;48396;48.426;1.500;2023-04-25T07:33:52;14.00;92.10
62363;DHT22;48396;48.426;1.500;2023-04-25T07:36:17;14.10;92.20
62363;DHT22;48396;48.426;1.500;2023-04-25T07:38:43;14.00;92.00
62363;DHT22;48396;48.426;1.500;2023-04-25T07:41:08;14.10;92.00
62363;DHT22;48396;48.426;1.500;2023-04-25T07:43:34;14.10;92.00
62363;DHT22;48396;48.426;1.500;2023-04-25T07:45:59;14.20;92.00
62363;DHT22;48396;48.426;1.500;2023-04-25T07:48:25;14.30;91.90
62363;DHT22;48396;48.426;1.500;2023-04-25T07:51:09;14.40;91.80
62363;DHT22;48396;48.426;1.500;2023-04-25T07:53:35;14.30;91.70
62363;DHT22;48396;48.426;1.500;2023-04-25T07:56:02;14.30;91.70
62363;DHT22;48396;48.426;1.500;2023-04-25T07:58:28;14.40;91.80
62363;DHT22;48396;48.426;1.500;2023-04-25T08:00:54;14.40;91.90
62363;DHT22;48396;48.426;1.500;2023-04-25T08:03:19;14.50;91.90
62363;DHT22;48396;48.426;1.500;2023-04-25T08:05:46;14.50;91.80
62363;DHT22;48396;48.426;1.500;2023-04-25T08:08:12;14.40;91.70
62363;DHT22;48396;48.426;1.500;2023-04-25T08:10:37;14.50;91.70
62363;DHT22;48396;48.426;1.500;2023-04-25T08:13:03;14.40;91.70
62363;DHT22;48396;48.426;1.500;2023-04-25T08:15:28;14.40;91.60
62363;DHT22;48396;48.426;1.500;2023-04-25T08:17:54;14.50;91.50
62363;DHT22;48396;48.426;1.500;2023-04-25T08:20:20;14.50;91.50
62363;DHT22;48396;48.426;1.500;2023-04-25T08:22:45;14.40;91.40
62363;DHT22;48396;48.426;1.500;2023-04-25T08:25:11;14.50;91.30
62363;DHT22;48396;48.426;1.500;2023-04-25T08:27:36;14.40;91.30
62363;DHT22;48396;48.426;1.500;2023-04-25T08:30:03;14.40;91.30
62363;DHT22;48396;48.426;1.500;2023-04-25T08:32:29;14.60;91.40
62363;DHT22;48396;48.426;1.500;2023-04-25T08:34:54;14.70;91.30
62363;DHT22;48396;48.426;1.500;2023-04-25T08:37:21;14.70;91.20
62363;DHT22;48396;48.426;1.500;2023-04-25T08:39:46;14.70;91.10
62363;DHT22;48396;48.426;1.500;2023-04-25T08:42:14;14.70;91.00
62363;DHT22;48396;48.426;1.500;2023-04-25T08:44:40;14.70;91.00
62363;DHT22;48396;48.426;1.500;2023-04-25T08:47:06;14.70;90.70
62363;DHT22;48396;48.426;1.500;2023-04-25T08:49:32;14.60;90.60
62363;DHT22;48396;48.426;1.500;2023-04-25T08:52:04;14.60;90.70
62363;DHT22;48396;48.426;1.500;2023-04-25T08:54:32;14.60;90.70
62363;DHT22;48396;48.426;1.500;2023-04-25T08:57:02;14.60;90.60
62363;DHT22;48396;48.426;1.500;2023-04-25T08:59:30;14.60;90.70
62363;DHT22;48396;48.426;1.500;2023-04-25T09:01:55;14.70;90.80
62363;DHT22;48396;48.426;1.500;2023-04-25T09:04:21;14.60;90.70
62363;DHT22;48396;48.426;1.500;2023-04-25T09:06:48;14.70;90.60
62363;DHT22;48396;48.426;1.500;2023-04-25T09:09:13;14.60;90.50
62363;DHT22;48396;48.426;1.500;2023-04-25T09:11:39;14.60;90.40
62363;DHT22;48396;48.426;1.500;2023-04-25T09:14:16;14.60;90.50
62363;DHT22;48396;48.426;1.500;2023-04-25T09:17:03;14.70;90.50
62363;DHT22;48396;48.426;1.500;2023-04-25T09:19:32;14.80;90.40
62363;DHT22;48396;48.426;1.500;2023-04-25T09:22:00;14.80;90.20
62363;DHT22;48396;48.426;1.500;2023-04-25T09:27:03;14.70;89.90
62363;DHT22;48396;48.426;1.500;2023-04-25T09:29:30;14.80;90.00
62363;DHT22;48396;48.426;1.500;2023-04-25T09:32:15;14.80;89.70
62363;DHT22;48396;48.426;1.500;2023-04-25T09:34:47;14.80;89.70
62363;DHT22;48396;48.426;1.500;2023-04-25T09:37:27;14.80;89.40
62363;DHT22;48396;48.426;1.500;2023-04-25T09:39:55;14.80;89.60
62363;DHT22;48396;48.426;1.500;2023-04-25T09:42:24;15.00;89.40
62363;DHT22;48396;48.426;1.500;2023-04-25T09:44:52;15.10;89.20
62363;DHT22;48396;48.426;1.500;2023-04-25T09:47:19;15.10;89.10
62363;DHT22;48396;48.426;1.500;2023-04-25T09:49:46;15.20;89.00
62363;DHT22;48396;48.426;1.500;2023-04-25T09:52:20;15.10;88.30
62363;DHT22;48396;48.426;1.500;2023-04-25T09:54:47;15.10;88.50
62363;DHT22;48396;48.426;1.500;2023-04-25T09:59:53;15.20;87.60
62363;DHT22;48396;48.426;1.500;2023-04-25T10:02:24;15.20;87.50
62363;DHT22;48396;48.426;1.500;2023-04-25T10:04:51;15.30;87.70
62363;DHT22;48396;48.426;1.500;2023-04-25T10:07:20;15.40;87.50
62363;DHT22;48396;48.426;1.500;2023-04-25T10:09:49;15.60;86.70
62363;DHT22;48396;48.426;1.500;2023-04-25T10:12:33;15.60;86.20
62363;DHT22;48396;48.426;1.500;2023-04-25T10:15:00;15.60;85.60
62363;DHT22;48396;48.426;1.500;2023-04-25T10:17:26;15.60;85.70
62363;DHT22;48396;48.426;1.500;2023-04-25T10:19:55;15.70;85.60
62363;DHT22;48396;48.426;1.500;2023-04-25T10:22:35;15.70;85.50
62363;DHT22;48396;48.426;1.500;2023-04-25T10:25:02;15.60;85.30
62363;DHT22;48396;48.426;1.500;2023-04-25T10:27:31;15.50;84.90
62363;DHT22;48396;48.426;1.500;2023-04-25T10:30:08;15.60;84.80
62363;DHT22;48396;48.426;1.500;2023-04-25T10:32:36;15.50;84.70
62363;DHT22;48396;48.426;1.500;2023-04-25T10:35:19;15.50;85.20
62363;DHT22;48396;48.426;1.500;2023-04-25T10:38:04;15.50;84.80
62363;DHT22;48396;48.426;1.500;2023-04-25T10:40:34;15.50;84.90
62363;DHT22;48396;48.426;1.500;2023-04-25T10:45:58;15.40;84.50
62363;DHT22;48396;48.426;1.500;2023-04-25T10:48:29;15.20;84.60
62363;DHT22;48396;48.426;1.500;2023-04-25T10:51:11;15.20;84.70
62363;DHT22;48396;48.426;1.500;2023-04-25T10:53:37;15.30;84.50
62363;DHT22;48396;48.426;1.500;2023-04-25T10:56:19;15.20;84.40
62363;DHT22;48396;48.426;1.500;2023-04-25T10:58:46;15.30;84.40
62363;DHT22;48396;48.426;1.500;2023-04-25T11:01:19;15.30;84.00
62363;DHT22;48396;48.426;1.500;2023-04-25T11:03:45;15.20;84.10
62363;DHT22;48396;48.426;1.500;2023-04-25T11:08:49;15.30;84.00
62363;DHT22;48396;48.426;1.500;2023-04-25T11:11:17;15.40;84.00
62363;DHT22;48396;48.426;1.500;2023-04-25T11:13:43;15.40;83.70
62363;DHT22;48396;48.426;1.500;2023-04-25T11:16:08;15.40;83.30
62363;DHT22;48396;48.426;1.500;2023-04-25T11:18:34;15.30;82.40
62363;DHT22;48396;48.426;1.500;2023-04-25T11:21:00;15.30;81.90
62363;DHT22;48396;48.426;1.500;2023-04-25T11:23:26;15.30;82.30
62363;DHT22;48396;48.426;1.500;2023-04-25T11:25:55;15.40;82.30
62363;DHT22;48396;48.426;1.500;2023-04-25T11:28:22;15.50;82.00
62363;DHT22;48396;48.426;1.500;2023-04-25T11:30:49;15.40;81.50
62363;DHT22;48396;48.426;1.500;2023-04-25T11:33:18;15.40;81.80
62363;DHT22;48396;48.426;1.500;2023-04-25T11:35:48;15.50;81.70
62363;DHT22;48396;48.426;1.500;2023-04-25T11:38:13;15.60;81.70
62363;DHT22;48396;48.426;1.500;2023-04-25T11:40:39;15.60;81.70
62363;DHT22;48396;48.426;1.500;2023-04-25T11:43:05;15.60;81.80
62363;DHT22;48396;48.426;1.500;2023-04-25T11:45:31;15.70;81.70
62363;DHT22;48396;48.426;1.500;2023-04-25T11:47:57;15.80;80.80
62363;DHT22;48396;48.426;1.500;2023-04-25T11:50:22;15.60;80.80
62363;DHT22;48396;48.426;1.500;2023-04-25T11:52:48;15.60;80.60
62363;DHT22;48396;48.426;1.500;2023-04-25T11:55:18;15.70;80.80
62363;DHT22;48396;48.426;1.500;2023-04-25T11:57:47;15.70;80.30
62363;DHT22;48396;48.426;1.500;2023-04-25T12:00:15;15.70;80.10
62363;DHT22;48396;48.426;1.500;2023-04-25T12:02:43;15.80;80.20
62363;DHT22;48396;48.426;1.500;2023-04-25T12:05:13;15.90;80.30
62363;DHT22;48396;48.426;1.500;2023-04-25T12:07:39;16.00;79.70
62363;DHT22;48396;48.426;1.500;2023-04-25T12:10:13;16.10;79.60
62363;DHT22;48396;48.426;1.500;2023-04-25T12:12:46;16.10;79.20
62363;DHT22;48396;48.426;1.500;2023-04-25T12:17:53;16.10;78.10
62363;DHT22;48396;48.426;1.500;2023-04-25T12:20:23;16.10;78.60
62363;DHT22;48396;48.426;1.500;2023-04-25T12:22:49;16.20;78.30
62363;DHT22;48396;48.426;1.500;2023-04-25T12:25:44;16.30;77.20
62363;DHT22;48396;48.426;1.500;2023-04-25T12:28:21;16.40;77.40
62363;DHT22;48396;48.426;1.500;2023-04-25T12:30:58;16.30;76.50
62363;DHT22;48396;48.426;1.500;2023-04-25T12:33:27;16.40;76.90
62363;DHT22;48396;48.426;1.500;2023-04-25T12:35:53;16.40;76.30
62363;DHT22;48396;48.426;1.500;2023-04-25T12:38:23;16.40;76.00
62363;DHT22;48396;48.426;1.500;2023-04-25T12:40:49;16.50;75.80
62363;DHT22;48396;48.426;1.500;2023-04-25T12:43:15;16.30;75.40
62363;DHT22;48396;48.426;1.500;2023-04-25T12:45:40;16.40;75.60
62363;DHT22;48396;48.426;1.500;2023-04-25T12:48:06;16.40;75.50
62363;DHT22;48396;48.426;1.500;2023-04-25T12:50:32;16.60;75.40
62363;DHT22;48396;48.426;1.500;2023-04-25T12:52:57;16.50;75.20
62363;DHT22;48396;48.426;1.500;2023-04-25T12:55:23;16.50;75.10
62363;DHT22;48396;48.426;1.500;2023-04-25T12:57:48;16.40;75.40
62363;DHT22;48396;48.426;1.500;2023-04-25T13:00:14;16.50;74.90
62363;DHT22;48396;48.426;1.500;2023-04-25T13:02:43;16.40;74.90
62363;DHT22;48396;48.426;1.500;2023-04-25T13:05:08;16.40;74.90
62363;DHT22;48396;48.426;1.500;2023-04-25T13:07:34;16.50;74.80
62363;DHT22;48396;48.426;1.500;2023-04-25T13:10:00;16.60;74.70
62363;DHT22;48396;48.426;1.500;2023-04-25T13:12:27;16.60;74.20
62363;DHT22;48396;48.426;1.500;2023-04-25T13:14:53;16.50;73.80
62363;DHT22;48396;48.426;1.500;2023-04-25T13:17:18;16.50;73.40
62363;DHT22;48396;48.426;1.500;2023-04-25T13:19:44;16.40;73.10
62363;DHT22;48396;48.426;1.500;2023-04-25T13:22:10;16.40;73.20
62363;DHT22;48396;48.426;1.500;2023-04-25T13:24:36;16.50;73.30
62363;DHT22;48396;48.426;1.500;2023-04-25T13:27:01;16.50;73.10
62363;DHT22;48396;48.426;1.500;2023-04-25T13:29:27;16.50;73.10
62363;DHT22;48396;48.426;1.500;2023-04-25T13:31:53;16.50;73.10
62363;DHT22;48396;48.426;1.500;2023-04-25T13:34:18;16.70;72.90
62363;DHT22;48396;48.426;1.500;2023-04-25T13:36:44;16.60;71.90
62363;DHT22;48396;48.426;1.500;2023-04-25T13:39:10;16.60;71.90
62363;DHT22;48396;48.426;1.500;2023-04-25T13:41:36;16.70;71.90
62363;DHT22;48396;48.426;1.500;2023-04-25T13:44:02;16.80;71.80
62363;DHT22;48396;48.426;1.500;2023-04-25T13:46:28;16.80;71.70
62363;DHT22;48396;48.426;1.500;2023-04-25T13:48:53;16.90;71.60
62363;DHT22;48396;48.426;1.500;2023-04-25T13:51:19;16.90;71.30
62363;DHT22;48396;48.426;1.500;2023-04-25T13:53:44;17.00;71.40
62363;DHT22;48396;48.426;1.500;2023-04-25T13:56:10;17.10;71.20
62363;DHT22;48396;48.426;1.500;2023-04-25T13:58:37;17.20;71.00
62363;DHT22;48396;48.426;1.500;2023-04-25T14:01:02;17.20;70.70
62363;DHT22;48396;48.426;1.500;2023-04-25T14:03:29;17.10;70.30
62363;DHT22;48396;48.426;1.500;2023-04-25T14:05:55;17.10;70.30
62363;DHT22;48396;48.426;1.500;2023-04-25T14:08:21;17.20;70.60
62363;DHT22;48396;48.426;1.500;2023-04-25T14:10:46;17.20;70.30
62363;DHT22;48396;48.426;1.500;2023-04-25T14:13:12;17.20;69.70
62363;DHT22;48396;48.426;1.500;2023-04-25T14:15:56;17.20;69.70
62363;DHT22;48396;48.426;1.500;2023-04-25T14:18:22;17.30;68.90
62363;DHT22;48396;48.426;1.500;2023-04-25T14:20:47;17.30;68.50
62363;DHT22;48396;48.426;1.500;2023-04-25T14:23:13;17.30;69.00
62363;DHT22;48396;48.426;1.500;2023-04-25T14:25:39;17.40;69.20
62363;DHT22;48396;48.426;1.500;2023-04-25T14:28:05;17.50;68.90
62363;DHT22;48396;48.426;1.500;2023-04-25T14:30:31;17.50;67.70
62363;DHT22;48396;48.426;1.500;2023-04-25T14:32:57;17.50;67.50
62363;DHT22;48396;48.426;1.500;2023-04-25T14:35:22;17.60;67.20
62363;DHT22;48396;48.426;1.500;2023-04-25T14:37:48;17.60;66.80
62363;DHT22;48396;48.426;1.500;2023-04-25T14:40:14;17.60;66.80
62363;DHT22;48396;48.426;1.500;2023-04-25T14:42:40;17.50;65.50
62363;DHT22;48396;48.426;1.500;2023-04-25T14:45:07;17.40;66.40
62363;DHT22;48396;48.426;1.500;2023-04-25T14:47:52;17.60;66.70
62363;DHT22;48396;48.426;1.500;2023-04-25T14:50:17;17.60;65.80
62363;DHT22;48396;48.426;1.500;2023-04-25T14:52:43;17.70;66.30
62363;DHT22;48396;48.426;1.500;2023-04-25T14:55:10;17.70;65.90
62363;DHT22;48396;48.426;1.500;2023-04-25T14:57:36;17.70;65.00
62363;DHT22;48396;48.426;1.500;2023-04-25T15:00:03;17.70;64.50
62363;DHT22;48396;48.426;1.500;2023-04-25T15:02:30;17.60;64.30
62363;DHT22;48396;48.426;1.500;2023-04-25T15:04:56;17.70;64.50
62363;DHT22;48396;48.426;1.500;2023-04-25T15:07:21;17.80;64.50
62363;DHT22;48396;48.426;1.500;2023-04-25T15:09:47;17.80;63.40
62363;DHT22;48396;48.426;1.500;2023-04-25T15:12:13;17.90;63.80
62363;DHT22;48396;48.426;1.500;2023-04-25T15:14:39;17.90;63.00
62363;DHT22;48396;48.426;1.500;2023-04-25T15:17:05;18.00;62.50
62363;DHT22;48396;48.426;1.500;2023-04-25T15:19:31;18.00;62.70
62363;DHT22;48396;48.426;1.500;2023-04-25T15:21:57;17.90;62.00
62363;DHT22;48396;48.426;1.500;2023-04-25T15:24:25;17.90;61.70
62363;DHT22;48396;48.426;1.500;2023-04-25T15:26:51;17.80;61.60
62363;DHT22;48396;48.426;1.500;2023-04-25T15:29:17;17.90;62.10
62363;DHT22;48396;48.426;1.500;2023-04-25T15:31:43;17.80;61.60
62363;DHT22;48396;48.426;1.500;2023-04-25T15:34:08;17.90;62.10
62363;DHT22;48396;48.426;1.500;2023-04-25T15:36:34;17.90;61.90
62363;DHT22;48396;48.426;1.500;2023-04-25T15:38:59;17.90;61.90
62363;DHT22;48396;48.426;1.500;2023-04-25T15:41:25;18.00;61.90